sensor_id;sensor_type;location;lat;lon;timestamp;P1;durP1;ratioP1;P2;durP2;ratioP2
10260;SDS011;5175;42.606;23.388;2023-05-10T00:00:38;6.00;;;5.50;;
10260;SDS011;5175;42.606;23.388;2023-05-10T00:03:05;6.77;;;6.17;;
10260;SDS011;5175;42.606;23.388;2023-05-10T00:05:32;6.53;;;6.03;;
10260;SDS011;5175;42.606;23.388;2023-05-10T00:08:00;6.50;;;6.00;;
10260;SDS011;5175;42.606;23.388;2023-05-10T00:10:27;6.80;;;6.20;;
10260;SDS011;5175;42.606;23.388;2023-05-10T00:12:54;7.00;;;6.40;;
10260;SDS011;5175;42.606;23.388;2023-05-10T00:15:20;6.73;;;6.13;;
10260;SDS011;5175;42.606;23.388;2023-05-10T00:17:47;6.90;;;6.30;;
10260;SDS011;5175;42.606;23.388;2023-05-10T00:20:14;6.60;;;6.07;;
10260;SDS011;5175;42.606;23.388;2023-05-10T00:22:41;6.93;;;6.33;;
10260;SDS011;5175;42.606;23.388;2023-05-10T00:25:09;7.10;;;6.50;;
10260;SDS011;5175;42.606;23.388;2023-05-10T00:27:36;7.50;;;6.90;;
10260;SDS011;5175;42.606;23.388;2023-05-10T00:30:03;7.40;;;6.80;;
10260;SDS011;5175;42.606;23.388;2023-05-10T00:32:31;7.67;;;7.07;;
10260;SDS011;5175;42.606;23.388;2023-05-10T00:34:58;10.87;;;7.37;;
10260;SDS011;5175;42.606;23.388;2023-05-10T00:37:24;7.80;;;7.20;;
10260;SDS011;5175;42.606;23.388;2023-05-10T00:39:51;7.80;;;7.10;;
10260;SDS011;5175;42.606;23.388;2023-05-10T00:42:19;8.23;;;7.43;;
10260;SDS011;5175;42.606;23.388;2023-05-10T00:44:47;8.27;;;7.57;;
10260;SDS011;5175;42.606;23.388;2023-05-10T00:47:14;8.67;;;7.90;;
10260;SDS011;5175;42.606;23.388;2023-05-10T00:49:41;8.40;;;7.70;;
10260;SDS011;5175;42.606;23.388;2023-05-10T00:52:09;8.30;;;7.50;;
10260;SDS011;5175;42.606;23.388;2023-05-10T00:54:36;7.80;;;7.10;;
10260;SDS011;5175;42.606;23.388;2023-05-10T00:57:03;8.10;;;7.40;;
10260;SDS011;5175;42.606;23.388;2023-05-10T00:59:31;8.30;;;7.60;;
10260;SDS011;5175;42.606;23.388;2023-05-10T01:01:58;8.33;;;7.63;;
10260;SDS011;5175;42.606;23.388;2023-05-10T01:04:25;8.50;;;7.70;;
10260;SDS011;5175;42.606;23.388;2023-05-10T01:06:52;8.07;;;7.37;;
10260;SDS011;5175;42.606;23.388;2023-05-10T01:09:19;8.00;;;7.30;;
10260;SDS011;5175;42.606;23.388;2023-05-10T01:11:47;8.67;;;7.87;;
10260;SDS011;5175;42.606;23.388;2023-05-10T01:14:15;8.23;;;7.43;;
10260;SDS011;5175;42.606;23.388;2023-05-10T01:16:46;8.03;;;7.33;;
10260;SDS011;5175;42.606;23.388;2023-05-10T01:19:17;8.57;;;7.67;;
10260;SDS011;5175;42.606;23.388;2023-05-10T01:21:48;7.27;;;6.67;;
10260;SDS011;5175;42.606;23.388;2023-05-10T01:30:34;7.10;;;6.50;;
10260;SDS011;5175;42.606;23.388;2023-05-10T01:33:15;6.70;;;6.17;;
10260;SDS011;5175;42.606;23.388;2023-05-10T01:35:47;7.33;;;6.73;;
10260;SDS011;5175;42.606;23.388;2023-05-10T01:38:22;7.47;;;6.57;;
10260;SDS011;5175;42.606;23.388;2023-05-10T01:40:57;6.60;;;6.00;;
10260;SDS011;5175;42.606;23.388;2023-05-10T01:43:34;6.80;;;6.10;;
10260;SDS011;5175;42.606;23.388;2023-05-10T01:46:07;7.13;;;6.43;;
10260;SDS011;5175;42.606;23.388;2023-05-10T01:48:44;7.63;;;6.80;;
10260;SDS011;5175;42.606;23.388;2023-05-10T01:51:15;7.47;;;6.77;;
10260;SDS011;5175;42.606;23.388;2023-05-10T01:53:46;6.20;;;5.70;;
10260;SDS011;5175;42.606;23.388;2023-05-10T01:56:16;5.13;;;4.63;;
10260;SDS011;5175;42.606;23.388;2023-05-10T01:58:49;4.83;;;4.43;;
10260;SDS011;5175;42.606;23.388;2023-05-10T02:01:17;5.20;;;4.80;;
10260;SDS011;5175;42.606;23.388;2023-05-10T02:03:49;6.40;;;5.80;;
10260;SDS011;5175;42.606;23.388;2023-05-10T02:06:18;5.53;;;5.03;;
10260;SDS011;5175;42.606;23.388;2023-05-10T02:08:46;6.03;;;5.53;;
10260;SDS011;5175;42.606;23.388;2023-05-10T02:11:15;6.40;;;5.90;;
10260;SDS011;5175;42.606;23.388;2023-05-10T02:13:44;6.00;;;5.37;;
10260;SDS011;5175;42.606;23.388;2023-05-10T02:16:13;5.90;;;5.40;;
10260;SDS011;5175;42.606;23.388;2023-05-10T02:18:42;5.60;;;5.10;;
10260;SDS011;5175;42.606;23.388;2023-05-10T02:21:11;6.63;;;5.00;;
10260;SDS011;5175;42.606;23.388;2023-05-10T02:23:40;5.67;;;5.07;;
10260;SDS011;5175;42.606;23.388;2023-05-10T02:26:09;5.50;;;5.00;;
10260;SDS011;5175;42.606;23.388;2023-05-10T02:28:38;6.23;;;5.63;;
10260;SDS011;5175;42.606;23.388;2023-05-10T02:31:07;5.83;;;5.33;;
10260;SDS011;5175;42.606;23.388;2023-05-10T02:33:35;6.43;;;5.83;;
10260;SDS011;5175;42.606;23.388;2023-05-10T02:36:05;6.50;;;5.57;;
10260;SDS011;5175;42.606;23.388;2023-05-10T02:38:35;7.80;;;5.90;;
10260;SDS011;5175;42.606;23.388;2023-05-10T02:41:02;7.60;;;6.07;;
10260;SDS011;5175;42.606;23.388;2023-05-10T02:43:32;7.53;;;6.20;;
10260;SDS011;5175;42.606;23.388;2023-05-10T02:46:00;7.33;;;5.60;;
10260;SDS011;5175;42.606;23.388;2023-05-10T02:48:27;6.67;;;6.03;;
10260;SDS011;5175;42.606;23.388;2023-05-10T02:50:54;7.00;;;5.90;;
10260;SDS011;5175;42.606;23.388;2023-05-10T02:53:30;7.40;;;6.70;;
10260;SDS011;5175;42.606;23.388;2023-05-10T02:56:00;6.93;;;6.23;;
10260;SDS011;5175;42.606;23.388;2023-05-10T02:58:32;7.83;;;7.03;;
10260;SDS011;5175;42.606;23.388;2023-05-10T03:00:59;8.43;;;7.17;;
10260;SDS011;5175;42.606;23.388;2023-05-10T03:03:26;8.23;;;6.80;;
10260;SDS011;5175;42.606;23.388;2023-05-10T03:05:53;7.87;;;7.17;;
10260;SDS011;5175;42.606;23.388;2023-05-10T03:08:21;8.27;;;7.20;;
10260;SDS011;5175;42.606;23.388;2023-05-10T03:10:53;9.50;;;7.80;;
10260;SDS011;5175;42.606;23.388;2023-05-10T03:13:31;10.07;;;7.33;;
10260;SDS011;5175;42.606;23.388;2023-05-10T03:16:05;9.87;;;7.27;;
10260;SDS011;5175;42.606;23.388;2023-05-10T03:18:38;7.50;;;6.80;;
10260;SDS011;5175;42.606;23.388;2023-05-10T03:21:10;8.20;;;6.77;;
10260;SDS011;5175;42.606;23.388;2023-05-10T03:23:41;7.80;;;6.90;;
10260;SDS011;5175;42.606;23.388;2023-05-10T03:26:11;8.60;;;6.83;;
10260;SDS011;5175;42.606;23.388;2023-05-10T03:28:44;8.53;;;6.50;;
10260;SDS011;5175;42.606;23.388;2023-05-10T03:31:13;7.50;;;6.70;;
10260;SDS011;5175;42.606;23.388;2023-05-10T03:33:45;7.50;;;6.67;;
10260;SDS011;5175;42.606;23.388;2023-05-10T03:36:12;7.70;;;6.97;;
10260;SDS011;5175;42.606;23.388;2023-05-10T03:38:39;6.97;;;6.33;;
10260;SDS011;5175;42.606;23.388;2023-05-10T03:41:06;7.03;;;6.33;;
10260;SDS011;5175;42.606;23.388;2023-05-10T03:43:33;7.17;;;6.37;;
10260;SDS011;5175;42.606;23.388;2023-05-10T03:46:02;7.77;;;7.00;;
10260;SDS011;5175;42.606;23.388;2023-05-10T03:48:29;7.93;;;6.23;;
10260;SDS011;5175;42.606;23.388;2023-05-10T03:50:56;7.40;;;6.57;;
10260;SDS011;5175;42.606;23.388;2023-05-10T03:53:23;9.50;;;6.67;;
10260;SDS011;5175;42.606;23.388;2023-05-10T03:55:50;8.23;;;6.80;;
10260;SDS011;5175;42.606;23.388;2023-05-10T03:58:17;7.67;;;6.87;;
10260;SDS011;5175;42.606;23.388;2023-05-10T04:00:43;8.20;;;7.40;;
10260;SDS011;5175;42.606;23.388;2023-05-10T04:03:12;8.57;;;7.20;;
10260;SDS011;5175;42.606;23.388;2023-05-10T04:05:39;7.47;;;6.53;;
10260;SDS011;5175;42.606;23.388;2023-05-10T04:08:06;6.80;;;6.20;;
10260;SDS011;5175;42.606;23.388;2023-05-10T04:10:33;7.20;;;6.50;;
10260;SDS011;5175;42.606;23.388;2023-05-10T04:13:00;7.37;;;6.67;;
10260;SDS011;5175;42.606;23.388;2023-05-10T04:15:27;7.10;;;6.40;;
10260;SDS011;5175;42.606;23.388;2023-05-10T04:17:53;7.27;;;6.17;;
10260;SDS011;5175;42.606;23.388;2023-05-10T04:20:22;6.67;;;5.97;;
10260;SDS011;5175;42.606;23.388;2023-05-10T04:22:49;9.30;;;6.70;;
10260;SDS011;5175;42.606;23.388;2023-05-10T04:25:15;7.30;;;6.60;;
10260;SDS011;5175;42.606;23.388;2023-05-10T04:27:42;7.30;;;6.60;;
10260;SDS011;5175;42.606;23.388;2023-05-10T04:30:09;7.13;;;6.43;;
10260;SDS011;5175;42.606;23.388;2023-05-10T04:32:36;7.30;;;6.60;;
10260;SDS011;5175;42.606;23.388;2023-05-10T04:35:03;5.73;;;5.23;;
10260;SDS011;5175;42.606;23.388;2023-05-10T04:37:32;6.90;;;6.20;;
10260;SDS011;5175;42.606;23.388;2023-05-10T04:39:59;7.27;;;5.97;;
10260;SDS011;5175;42.606;23.388;2023-05-10T04:42:26;6.37;;;5.77;;
10260;SDS011;5175;42.606;23.388;2023-05-10T04:44:52;6.43;;;5.83;;
10260;SDS011;5175;42.606;23.388;2023-05-10T04:47:19;6.63;;;6.03;;
10260;SDS011;5175;42.606;23.388;2023-05-10T04:49:46;8.33;;;5.93;;
10260;SDS011;5175;42.606;23.388;2023-05-10T04:52:13;7.20;;;6.50;;
10260;SDS011;5175;42.606;23.388;2023-05-10T04:54:43;6.20;;;5.60;;
10260;SDS011;5175;42.606;23.388;2023-05-10T04:57:10;7.10;;;6.40;;
10260;SDS011;5175;42.606;23.388;2023-05-10T04:59:37;7.20;;;6.03;;
10260;SDS011;5175;42.606;23.388;2023-05-10T05:02:04;6.30;;;5.70;;
10260;SDS011;5175;42.606;23.388;2023-05-10T05:04:31;7.70;;;6.37;;
10260;SDS011;5175;42.606;23.388;2023-05-10T05:06:58;7.53;;;6.73;;
10260;SDS011;5175;42.606;23.388;2023-05-10T05:09:25;7.17;;;6.47;;
10260;SDS011;5175;42.606;23.388;2023-05-10T05:11:53;6.90;;;6.20;;
10260;SDS011;5175;42.606;23.388;2023-05-10T05:14:20;7.50;;;6.50;;
10260;SDS011;5175;42.606;23.388;2023-05-10T05:16:47;7.43;;;6.73;;
10260;SDS011;5175;42.606;23.388;2023-05-10T05:19:13;8.17;;;6.93;;
10260;SDS011;5175;42.606;23.388;2023-05-10T05:21:40;8.60;;;7.77;;
10260;SDS011;5175;42.606;23.388;2023-05-10T05:24:07;7.83;;;7.03;;
10260;SDS011;5175;42.606;23.388;2023-05-10T05:26:35;10.00;;;7.70;;
10260;SDS011;5175;42.606;23.388;2023-05-10T05:29:03;8.13;;;7.33;;
10260;SDS011;5175;42.606;23.388;2023-05-10T05:31:30;8.20;;;7.30;;
10260;SDS011;5175;42.606;23.388;2023-05-10T05:33:57;8.43;;;7.63;;
10260;SDS011;5175;42.606;23.388;2023-05-10T05:36:23;9.30;;;8.10;;
10260;SDS011;5175;42.606;23.388;2023-05-10T05:38:50;9.33;;;8.43;;
10260;SDS011;5175;42.606;23.388;2023-05-10T05:41:17;9.90;;;9.00;;
10260;SDS011;5175;42.606;23.388;2023-05-10T05:43:45;10.50;;;8.53;;
10260;SDS011;5175;42.606;23.388;2023-05-10T05:46:13;11.17;;;9.37;;
10260;SDS011;5175;42.606;23.388;2023-05-10T05:48:39;9.97;;;8.97;;
10260;SDS011;5175;42.606;23.388;2023-05-10T05:51:06;9.43;;;8.53;;
10260;SDS011;5175;42.606;23.388;2023-05-10T05:53:33;10.53;;;9.20;;
10260;SDS011;5175;42.606;23.388;2023-05-10T05:56:00;10.57;;;9.50;;
10260;SDS011;5175;42.606;23.388;2023-05-10T05:58:26;11.07;;;9.97;;
10260;SDS011;5175;42.606;23.388;2023-05-10T06:00:53;10.40;;;9.13;;
10260;SDS011;5175;42.606;23.388;2023-05-10T06:03:21;10.50;;;9.07;;
10260;SDS011;5175;42.606;23.388;2023-05-10T06:05:48;11.03;;;9.83;;
10260;SDS011;5175;42.606;23.388;2023-05-10T06:08:15;11.27;;;9.47;;
10260;SDS011;5175;42.606;23.388;2023-05-10T06:10:42;10.77;;;9.60;;
10260;SDS011;5175;42.606;23.388;2023-05-10T06:13:09;11.40;;;10.20;;
10260;SDS011;5175;42.606;23.388;2023-05-10T06:15:36;10.70;;;9.60;;
10260;SDS011;5175;42.606;23.388;2023-05-10T06:18:03;10.60;;;9.47;;
10260;SDS011;5175;42.606;23.388;2023-05-10T06:20:32;11.00;;;9.47;;
10260;SDS011;5175;42.606;23.388;2023-05-10T06:22:59;10.77;;;9.33;;
10260;SDS011;5175;42.606;23.388;2023-05-10T06:25:25;11.43;;;9.93;;
10260;SDS011;5175;42.606;23.388;2023-05-10T06:27:52;10.80;;;9.33;;
10260;SDS011;5175;42.606;23.388;2023-05-10T06:30:22;9.57;;;8.57;;
10260;SDS011;5175;42.606;23.388;2023-05-10T06:32:52;10.00;;;8.97;;
10260;SDS011;5175;42.606;23.388;2023-05-10T06:35:19;12.77;;;9.60;;
10260;SDS011;5175;42.606;23.388;2023-05-10T06:37:48;11.73;;;9.37;;
10260;SDS011;5175;42.606;23.388;2023-05-10T06:40:15;11.23;;;9.97;;
10260;SDS011;5175;42.606;23.388;2023-05-10T06:42:42;11.07;;;9.93;;
10260;SDS011;5175;42.606;23.388;2023-05-10T06:45:10;10.23;;;9.10;;
10260;SDS011;5175;42.606;23.388;2023-05-10T06:47:37;10.97;;;9.73;;
10260;SDS011;5175;42.606;23.388;2023-05-10T06:50:04;10.97;;;9.90;;
10260;SDS011;5175;42.606;23.388;2023-05-10T06:52:32;11.13;;;9.07;;
10260;SDS011;5175;42.606;23.388;2023-05-10T06:55:00;11.07;;;9.10;;
10260;SDS011;5175;42.606;23.388;2023-05-10T06:57:28;10.33;;;9.23;;
10260;SDS011;5175;42.606;23.388;2023-05-10T06:59:55;10.57;;;9.47;;
10260;SDS011;5175;42.606;23.388;2023-05-10T07:02:22;10.17;;;8.67;;
10260;SDS011;5175;42.606;23.388;2023-05-10T07:04:49;10.33;;;9.27;;
10260;SDS011;5175;42.606;23.388;2023-05-10T07:07:17;12.00;;;9.60;;
10260;SDS011;5175;42.606;23.388;2023-05-10T07:09:44;10.13;;;9.13;;
10260;SDS011;5175;42.606;23.388;2023-05-10T07:12:12;9.87;;;8.90;;
10260;SDS011;5175;42.606;23.388;2023-05-10T07:14:39;11.07;;;9.93;;
10260;SDS011;5175;42.606;23.388;2023-05-10T07:17:06;12.30;;;9.97;;
10260;SDS011;5175;42.606;23.388;2023-05-10T07:19:33;11.23;;;10.10;;
10260;SDS011;5175;42.606;23.388;2023-05-10T07:22:00;11.53;;;10.33;;
10260;SDS011;5175;42.606;23.388;2023-05-10T07:24:27;11.53;;;10.37;;
10260;SDS011;5175;42.606;23.388;2023-05-10T07:26:53;13.43;;;10.97;;
10260;SDS011;5175;42.606;23.388;2023-05-10T07:29:22;11.57;;;10.37;;
10260;SDS011;5175;42.606;23.388;2023-05-10T07:31:48;11.40;;;10.20;;
10260;SDS011;5175;42.606;23.388;2023-05-10T07:34:15;11.17;;;10.07;;
10260;SDS011;5175;42.606;23.388;2023-05-10T07:36:42;12.00;;;10.77;;
10260;SDS011;5175;42.606;23.388;2023-05-10T07:39:09;11.30;;;10.13;;
10260;SDS011;5175;42.606;23.388;2023-05-10T07:41:36;13.53;;;10.77;;
10260;SDS011;5175;42.606;23.388;2023-05-10T07:44:04;11.43;;;10.23;;
10260;SDS011;5175;42.606;23.388;2023-05-10T07:46:32;12.47;;;11.17;;
10260;SDS011;5175;42.606;23.388;2023-05-10T07:48:59;12.43;;;11.23;;
10260;SDS011;5175;42.606;23.388;2023-05-10T07:51:26;12.10;;;10.30;;
10260;SDS011;5175;42.606;23.388;2023-05-10T07:53:53;12.67;;;11.37;;
10260;SDS011;5175;42.606;23.388;2023-05-10T07:56:20;12.90;;;11.70;;
10260;SDS011;5175;42.606;23.388;2023-05-10T07:58:49;12.87;;;10.90;;
10260;SDS011;5175;42.606;23.388;2023-05-10T08:01:16;12.43;;;11.17;;
10260;SDS011;5175;42.606;23.388;2023-05-10T08:03:44;12.13;;;10.80;;
10260;SDS011;5175;42.606;23.388;2023-05-10T08:06:11;10.67;;;9.57;;
10260;SDS011;5175;42.606;23.388;2023-05-10T08:08:38;12.40;;;10.97;;
10260;SDS011;5175;42.606;23.388;2023-05-10T08:11:08;11.43;;;9.90;;
10260;SDS011;5175;42.606;23.388;2023-05-10T08:13:35;11.27;;;10.17;;
10260;SDS011;5175;42.606;23.388;2023-05-10T08:16:02;11.30;;;10.13;;
10260;SDS011;5175;42.606;23.388;2023-05-10T08:18:29;11.90;;;10.67;;
10260;SDS011;5175;42.606;23.388;2023-05-10T08:20:57;13.50;;;10.70;;
10260;SDS011;5175;42.606;23.388;2023-05-10T08:23:23;12.23;;;10.93;;
10260;SDS011;5175;42.606;23.388;2023-05-10T08:25:53;11.03;;;10.00;;
10260;SDS011;5175;42.606;23.388;2023-05-10T08:28:19;11.50;;;10.40;;
10260;SDS011;5175;42.606;23.388;2023-05-10T08:30:46;10.63;;;9.63;;
10260;SDS011;5175;42.606;23.388;2023-05-10T08:33:13;12.27;;;10.20;;
10260;SDS011;5175;42.606;23.388;2023-05-10T08:35:40;11.20;;;10.10;;
10260;SDS011;5175;42.606;23.388;2023-05-10T08:38:08;10.90;;;9.90;;
10260;SDS011;5175;42.606;23.388;2023-05-10T08:40:36;11.37;;;10.23;;
10260;SDS011;5175;42.606;23.388;2023-05-10T08:43:04;10.50;;;9.40;;
10260;SDS011;5175;42.606;23.388;2023-05-10T08:45:32;11.93;;;10.23;;
10260;SDS011;5175;42.606;23.388;2023-05-10T08:48:02;12.27;;;11.07;;
10260;SDS011;5175;42.606;23.388;2023-05-10T08:50:31;10.93;;;9.90;;
10260;SDS011;5175;42.606;23.388;2023-05-10T08:53:03;13.67;;;10.87;;
10260;SDS011;5175;42.606;23.388;2023-05-10T08:55:33;11.17;;;10.10;;
10260;SDS011;5175;42.606;23.388;2023-05-10T08:58:01;13.57;;;10.97;;
10260;SDS011;5175;42.606;23.388;2023-05-10T09:00:28;12.37;;;11.07;;
10260;SDS011;5175;42.606;23.388;2023-05-10T09:02:55;11.90;;;10.80;;
10260;SDS011;5175;42.606;23.388;2023-05-10T09:05:23;13.37;;;11.17;;
10260;SDS011;5175;42.606;23.388;2023-05-10T09:07:50;13.07;;;11.63;;
10260;SDS011;5175;42.606;23.388;2023-05-10T09:10:17;11.90;;;10.70;;
10260;SDS011;5175;42.606;23.388;2023-05-10T09:12:46;11.77;;;10.60;;
10260;SDS011;5175;42.606;23.388;2023-05-10T09:15:15;11.27;;;10.00;;
10260;SDS011;5175;42.606;23.388;2023-05-10T09:17:44;12.47;;;11.17;;
10260;SDS011;5175;42.606;23.388;2023-05-10T09:20:11;11.83;;;10.63;;
10260;SDS011;5175;42.606;23.388;2023-05-10T09:22:38;11.83;;;10.73;;
10260;SDS011;5175;42.606;23.388;2023-05-10T09:25:06;11.40;;;10.37;;
10260;SDS011;5175;42.606;23.388;2023-05-10T09:27:36;11.60;;;10.40;;
10260;SDS011;5175;42.606;23.388;2023-05-10T09:30:05;12.30;;;11.20;;
10260;SDS011;5175;42.606;23.388;2023-05-10T09:32:37;12.20;;;11.10;;
10260;SDS011;5175;42.606;23.388;2023-05-10T09:35:08;12.73;;;11.10;;
10260;SDS011;5175;42.606;23.388;2023-05-10T09:37:36;12.00;;;10.80;;
10260;SDS011;5175;42.606;23.388;2023-05-10T09:40:04;12.10;;;10.80;;
10260;SDS011;5175;42.606;23.388;2023-05-10T09:42:33;11.90;;;10.80;;
10260;SDS011;5175;42.606;23.388;2023-05-10T09:45:03;11.43;;;10.37;;
10260;SDS011;5175;42.606;23.388;2023-05-10T09:47:33;11.23;;;10.13;;
10260;SDS011;5175;42.606;23.388;2023-05-10T09:50:01;11.73;;;10.53;;
10260;SDS011;5175;42.606;23.388;2023-05-10T09:52:29;13.20;;;11.03;;
10260;SDS011;5175;42.606;23.388;2023-05-10T09:54:57;11.50;;;10.50;;
10260;SDS011;5175;42.606;23.388;2023-05-10T09:57:24;12.30;;;11.10;;
10260;SDS011;5175;42.606;23.388;2023-05-10T09:59:51;10.90;;;9.80;;
10260;SDS011;5175;42.606;23.388;2023-05-10T10:02:21;10.63;;;9.63;;
10260;SDS011;5175;42.606;23.388;2023-05-10T10:04:56;11.37;;;10.20;;
10260;SDS011;5175;42.606;23.388;2023-05-10T10:07:23;11.07;;;9.87;;
10260;SDS011;5175;42.606;23.388;2023-05-10T10:09:51;11.47;;;10.37;;
10260;SDS011;5175;42.606;23.388;2023-05-10T10:12:19;11.47;;;10.37;;
10260;SDS011;5175;42.606;23.388;2023-05-10T10:14:46;12.27;;;10.53;;
10260;SDS011;5175;42.606;23.388;2023-05-10T10:17:15;11.17;;;10.07;;
10260;SDS011;5175;42.606;23.388;2023-05-10T10:19:44;12.77;;;10.23;;
10260;SDS011;5175;42.606;23.388;2023-05-10T10:22:12;10.90;;;9.80;;
10260;SDS011;5175;42.606;23.388;2023-05-10T10:24:38;9.80;;;8.90;;
10260;SDS011;5175;42.606;23.388;2023-05-10T10:27:12;9.67;;;8.77;;
10260;SDS011;5175;42.606;23.388;2023-05-10T10:29:49;10.57;;;8.67;;
10260;SDS011;5175;42.606;23.388;2023-05-10T10:32:25;10.07;;;8.83;;
10260;SDS011;5175;42.606;23.388;2023-05-10T10:35:00;11.80;;;8.83;;
10260;SDS011;5175;42.606;23.388;2023-05-10T10:37:40;9.83;;;8.93;;
10260;SDS011;5175;42.606;23.388;2023-05-10T10:40:24;10.27;;;9.37;;
10260;SDS011;5175;42.606;23.388;2023-05-10T10:42:53;9.30;;;8.30;;
10260;SDS011;5175;42.606;23.388;2023-05-10T10:45:20;10.40;;;8.77;;
10260;SDS011;5175;42.606;23.388;2023-05-10T10:47:48;9.37;;;8.47;;
10260;SDS011;5175;42.606;23.388;2023-05-10T10:50:18;9.03;;;8.17;;
10260;SDS011;5175;42.606;23.388;2023-05-10T10:52:45;9.23;;;8.17;;
10260;SDS011;5175;42.606;23.388;2023-05-10T10:55:14;10.33;;;9.27;;
10260;SDS011;5175;42.606;23.388;2023-05-10T10:57:45;9.73;;;8.73;;
10260;SDS011;5175;42.606;23.388;2023-05-10T11:00:20;9.30;;;8.50;;
10260;SDS011;5175;42.606;23.388;2023-05-10T11:02:57;8.40;;;7.70;;
10260;SDS011;5175;42.606;23.388;2023-05-10T11:08:16;8.93;;;8.10;;
10260;SDS011;5175;42.606;23.388;2023-05-10T11:11:04;8.73;;;7.93;;
10260;SDS011;5175;42.606;23.388;2023-05-10T11:13:33;8.10;;;7.30;;
10260;SDS011;5175;42.606;23.388;2023-05-10T11:16:13;9.70;;;8.73;;
10260;SDS011;5175;42.606;23.388;2023-05-10T11:18:51;9.87;;;8.97;;
10260;SDS011;5175;42.606;23.388;2023-05-10T11:21:21;9.37;;;8.20;;
10260;SDS011;5175;42.606;23.388;2023-05-10T11:23:49;9.13;;;8.23;;
10260;SDS011;5175;42.606;23.388;2023-05-10T11:26:17;8.37;;;7.57;;
10260;SDS011;5175;42.606;23.388;2023-05-10T11:28:48;10.40;;;8.60;;
10260;SDS011;5175;42.606;23.388;2023-05-10T11:31:15;9.43;;;8.10;;
10260;SDS011;5175;42.606;23.388;2023-05-10T11:33:43;9.30;;;8.40;;
10260;SDS011;5175;42.606;23.388;2023-05-10T11:36:11;8.47;;;7.77;;
10260;SDS011;5175;42.606;23.388;2023-05-10T11:38:40;9.77;;;8.60;;
10260;SDS011;5175;42.606;23.388;2023-05-10T11:41:07;9.30;;;8.27;;
10260;SDS011;5175;42.606;23.388;2023-05-10T11:43:36;8.87;;;8.07;;
10260;SDS011;5175;42.606;23.388;2023-05-10T11:46:04;9.30;;;7.90;;
10260;SDS011;5175;42.606;23.388;2023-05-10T11:48:31;10.47;;;9.37;;
10260;SDS011;5175;42.606;23.388;2023-05-10T11:50:58;12.00;;;9.77;;
10260;SDS011;5175;42.606;23.388;2023-05-10T11:53:27;11.97;;;10.53;;
10260;SDS011;5175;42.606;23.388;2023-05-10T11:55:55;10.43;;;9.33;;
10260;SDS011;5175;42.606;23.388;2023-05-10T11:58:29;10.67;;;9.70;;
10260;SDS011;5175;42.606;23.388;2023-05-10T12:00:56;10.20;;;9.20;;
10260;SDS011;5175;42.606;23.388;2023-05-10T12:03:23;12.70;;;10.20;;
10260;SDS011;5175;42.606;23.388;2023-05-10T12:05:50;11.00;;;10.00;;
10260;SDS011;5175;42.606;23.388;2023-05-10T12:08:20;9.80;;;8.90;;
10260;SDS011;5175;42.606;23.388;2023-05-10T12:10:48;10.43;;;9.43;;
10260;SDS011;5175;42.606;23.388;2023-05-10T12:13:16;11.63;;;9.97;;
10260;SDS011;5175;42.606;23.388;2023-05-10T12:15:43;11.07;;;9.93;;
10260;SDS011;5175;42.606;23.388;2023-05-10T12:18:10;11.13;;;9.70;;
10260;SDS011;5175;42.606;23.388;2023-05-10T12:20:38;10.80;;;9.67;;
10260;SDS011;5175;42.606;23.388;2023-05-10T12:23:07;10.83;;;9.60;;
10260;SDS011;5175;42.606;23.388;2023-05-10T12:25:36;11.97;;;8.80;;
10260;SDS011;5175;42.606;23.388;2023-05-10T12:28:05;10.30;;;9.40;;
10260;SDS011;5175;42.606;23.388;2023-05-10T12:30:34;9.70;;;8.70;;
10260;SDS011;5175;42.606;23.388;2023-05-10T12:33:06;10.50;;;8.60;;
10260;SDS011;5175;42.606;23.388;2023-05-10T12:35:42;8.63;;;7.87;;
10260;SDS011;5175;42.606;23.388;2023-05-10T12:38:24;10.03;;;8.73;;
10260;SDS011;5175;42.606;23.388;2023-05-10T12:40:52;10.13;;;8.57;;
10260;SDS011;5175;42.606;23.388;2023-05-10T12:43:18;9.33;;;8.43;;
10260;SDS011;5175;42.606;23.388;2023-05-10T12:45:47;8.83;;;7.93;;
10260;SDS011;5175;42.606;23.388;2023-05-10T12:48:14;10.43;;;9.33;;
10260;SDS011;5175;42.606;23.388;2023-05-10T12:50:40;8.13;;;7.43;;
10260;SDS011;5175;42.606;23.388;2023-05-10T12:53:07;9.03;;;8.03;;
10260;SDS011;5175;42.606;23.388;2023-05-10T12:55:34;11.27;;;9.27;;
10260;SDS011;5175;42.606;23.388;2023-05-10T12:58:01;8.77;;;7.97;;
10260;SDS011;5175;42.606;23.388;2023-05-10T13:00:28;9.43;;;7.70;;
10260;SDS011;5175;42.606;23.388;2023-05-10T13:02:56;8.10;;;7.40;;
10260;SDS011;5175;42.606;23.388;2023-05-10T13:05:23;9.30;;;8.00;;
10260;SDS011;5175;42.606;23.388;2023-05-10T13:07:50;10.17;;;7.57;;
10260;SDS011;5175;42.606;23.388;2023-05-10T13:10:16;8.07;;;7.27;;
10260;SDS011;5175;42.606;23.388;2023-05-10T13:12:43;7.80;;;7.10;;
10260;SDS011;5175;42.606;23.388;2023-05-10T13:15:12;8.47;;;7.67;;
10260;SDS011;5175;42.606;23.388;2023-05-10T13:17:40;9.00;;;7.60;;
10260;SDS011;5175;42.606;23.388;2023-05-10T13:20:10;8.80;;;8.00;;
10260;SDS011;5175;42.606;23.388;2023-05-10T13:22:37;9.67;;;7.30;;
10260;SDS011;5175;42.606;23.388;2023-05-10T13:25:04;9.70;;;7.80;;
10260;SDS011;5175;42.606;23.388;2023-05-10T13:27:31;9.17;;;7.03;;
10260;SDS011;5175;42.606;23.388;2023-05-10T13:29:58;8.80;;;7.70;;
10260;SDS011;5175;42.606;23.388;2023-05-10T13:32:25;9.17;;;8.23;;
10260;SDS011;5175;42.606;23.388;2023-05-10T13:34:52;8.70;;;7.80;;
10260;SDS011;5175;42.606;23.388;2023-05-10T13:37:20;8.70;;;7.90;;
10260;SDS011;5175;42.606;23.388;2023-05-10T13:39:47;11.70;;;8.30;;
10260;SDS011;5175;42.606;23.388;2023-05-10T13:42:14;9.03;;;8.07;;
10260;SDS011;5175;42.606;23.388;2023-05-10T13:44:41;10.90;;;8.90;;
10260;SDS011;5175;42.606;23.388;2023-05-10T13:47:08;9.87;;;8.97;;
10260;SDS011;5175;42.606;23.388;2023-05-10T13:49:35;8.80;;;8.00;;
10260;SDS011;5175;42.606;23.388;2023-05-10T13:52:02;9.03;;;8.03;;
10260;SDS011;5175;42.606;23.388;2023-05-10T13:54:33;8.97;;;8.07;;
10260;SDS011;5175;42.606;23.388;2023-05-10T13:57:00;9.33;;;8.50;;
10260;SDS011;5175;42.606;23.388;2023-05-10T13:59:28;8.90;;;8.00;;
10260;SDS011;5175;42.606;23.388;2023-05-10T14:01:56;8.97;;;8.17;;
10260;SDS011;5175;42.606;23.388;2023-05-10T14:04:23;9.20;;;7.97;;
10260;SDS011;5175;42.606;23.388;2023-05-10T14:06:50;9.87;;;8.20;;
10260;SDS011;5175;42.606;23.388;2023-05-10T14:09:17;10.03;;;7.70;;
10260;SDS011;5175;42.606;23.388;2023-05-10T14:11:46;9.47;;;8.57;;
10260;SDS011;5175;42.606;23.388;2023-05-10T14:14:13;9.50;;;8.50;;
10260;SDS011;5175;42.606;23.388;2023-05-10T14:16:41;8.60;;;7.70;;
10260;SDS011;5175;42.606;23.388;2023-05-10T14:19:09;9.07;;;7.70;;
10260;SDS011;5175;42.606;23.388;2023-05-10T14:21:36;8.60;;;7.80;;
10260;SDS011;5175;42.606;23.388;2023-05-10T14:24:03;10.00;;;8.60;;
10260;SDS011;5175;42.606;23.388;2023-05-10T14:26:31;10.90;;;8.13;;
10260;SDS011;5175;42.606;23.388;2023-05-10T14:29:00;9.10;;;8.20;;
10260;SDS011;5175;42.606;23.388;2023-05-10T14:31:27;8.43;;;7.73;;
10260;SDS011;5175;42.606;23.388;2023-05-10T14:33:55;9.00;;;8.10;;
10260;SDS011;5175;42.606;23.388;2023-05-10T14:36:22;9.47;;;8.57;;
10260;SDS011;5175;42.606;23.388;2023-05-10T14:38:49;13.63;;;8.20;;
10260;SDS011;5175;42.606;23.388;2023-05-10T14:41:15;9.63;;;8.47;;
10260;SDS011;5175;42.606;23.388;2023-05-10T14:43:42;9.30;;;8.37;;
10260;SDS011;5175;42.606;23.388;2023-05-10T14:46:11;8.93;;;8.10;;
10260;SDS011;5175;42.606;23.388;2023-05-10T14:48:37;9.17;;;8.27;;
10260;SDS011;5175;42.606;23.388;2023-05-10T14:51:07;8.57;;;7.50;;
10260;SDS011;5175;42.606;23.388;2023-05-10T14:53:33;8.20;;;7.40;;
10260;SDS011;5175;42.606;23.388;2023-05-10T14:56:00;8.30;;;7.20;;